createdAt,value
2023-05-14T00:00:16.722Z,95.7
2023-05-14T00:01:17.256Z,95.6
2023-05-14T00:02:17.600Z,95.6
2023-05-14T00:03:17.458Z,96.0
2023-05-14T00:04:17.196Z,95.9
2023-05-14T00:05:16.860Z,95.7
2023-05-14T00:06:17.407Z,95.8
2023-05-14T00:07:17.012Z,95.7
2023-05-14T00:08:16.603Z,95.8
2023-05-14T00:09:17.207Z,95.9
2023-05-14T00:10:16.773Z,95.9
2023-05-14T00:11:17.349Z,95.8
2023-05-14T00:12:17.142Z,95.8
2023-05-14T00:13:16.708Z,95.8
2023-05-14T00:14:17.308Z,95.7
2023-05-14T00:15:16.863Z,95.7
2023-05-14T00:16:17.493Z,95.7
2023-05-14T00:17:17.080Z,96.0
2023-05-14T00:18:16.616Z,96.3
2023-05-14T00:19:17.238Z,96.3
2023-05-14T00:20:16.830Z,96.3
2023-05-14T00:21:17.440Z,96.3
2023-05-14T00:22:17.248Z,96.2
2023-05-14T00:23:16.846Z,96.1
2023-05-14T00:24:17.434Z,96.2
2023-05-14T00:25:16.981Z,96.3
2023-05-14T00:26:16.564Z,96.3
2023-05-14T00:27:17.185Z,96.2
2023-05-14T00:28:16.734Z,96.3
2023-05-14T00:29:17.289Z,96.2
2023-05-14T00:30:16.853Z,96.2
2023-05-14T00:31:17.517Z,96.2
2023-05-14T00:32:17.349Z,96.3
2023-05-14T00:33:16.936Z,96.4
2023-05-14T00:34:17.546Z,96.6
2023-05-14T00:35:17.109Z,96.7
2023-05-14T00:36:16.654Z,96.8
2023-05-14T00:37:17.216Z,96.9
2023-05-14T00:38:16.795Z,96.9
2023-05-14T00:39:17.356Z,96.6
2023-05-14T00:40:16.900Z,96.4
2023-05-14T00:41:17.422Z,96.5
2023-05-14T00:42:17.047Z,96.5
2023-05-14T00:43:16.611Z,96.3
2023-05-14T00:44:17.206Z,96.2
2023-05-14T00:45:16.744Z,96.1
2023-05-14T00:46:17.364Z,96.1
2023-05-14T00:47:16.949Z,96.1
2023-05-14T00:48:17.527Z,96.1
2023-05-14T00:49:17.148Z,96.1
2023-05-14T00:50:16.692Z,96.0
2023-05-14T00:51:17.266Z,96.0
2023-05-14T00:52:16.910Z,96.0
2023-05-14T00:53:17.448Z,96.2
2023-05-14T00:54:17.457Z,96.1
2023-05-14T00:55:17.042Z,96.1
2023-05-14T00:56:16.598Z,96.2
2023-05-14T00:57:17.200Z,96.1
2023-05-14T00:58:16.771Z,96.1
2023-05-14T00:59:17.357Z,96.2
2023-05-14T01:00:17.008Z,95.9
2023-05-14T01:01:16.878Z,96.0
2023-05-14T01:02:17.179Z,96.1
2023-05-14T01:03:17.068Z,96.4
2023-05-14T01:04:16.713Z,96.5
2023-05-14T01:05:17.322Z,96.3
2023-05-14T01:06:16.893Z,96.3
2023-05-14T01:07:17.488Z,96.2
2023-05-14T01:08:17.023Z,96.1
2023-05-14T01:09:16.575Z,96.3
2023-05-14T01:10:17.158Z,96.3
2023-05-14T01:11:16.675Z,96.4
2023-05-14T01:12:17.142Z,96.3
2023-05-14T01:13:16.714Z,96.6
2023-05-14T01:14:17.322Z,96.6
2023-05-14T01:15:16.911Z,96.4
2023-05-14T01:16:17.572Z,96.4
2023-05-14T01:17:17.145Z,96.5
2023-05-14T01:18:16.698Z,96.4
2023-05-14T01:19:17.337Z,96.5
2023-05-14T01:20:16.913Z,96.5
2023-05-14T01:21:17.440Z,96.5
2023-05-14T01:22:17.416Z,96.5
2023-05-14T01:23:16.970Z,96.6
2023-05-14T01:24:17.511Z,96.7
2023-05-14T01:25:17.038Z,96.4
2023-05-14T01:26:16.588Z,96.4
2023-05-14T01:27:17.141Z,96.3
2023-05-14T01:28:16.698Z,96.3
2023-05-14T01:29:17.360Z,96.3
2023-05-14T01:30:16.913Z,96.2
2023-05-14T01:31:17.532Z,96.3
2023-05-14T01:32:17.657Z,96.4
2023-05-14T01:33:17.324Z,95.9
2023-05-14T01:34:16.864Z,95.9
2023-05-14T01:35:17.469Z,96.1
2023-05-14T01:36:16.987Z,96.0
2023-05-14T01:37:16.588Z,96.0
2023-05-14T01:38:17.152Z,96.1
2023-05-14T01:39:16.717Z,95.9
2023-05-14T01:40:17.267Z,95.9
2023-05-14T01:41:16.817Z,95.9
2023-05-14T01:42:17.066Z,95.9
2023-05-14T01:43:16.729Z,96.0
2023-05-14T01:44:17.344Z,96.0
2023-05-14T01:45:16.914Z,96.0
2023-05-14T01:46:17.505Z,95.9
2023-05-14T01:47:17.057Z,96.0
2023-05-14T01:48:16.602Z,96.2
2023-05-14T01:49:17.140Z,96.0
2023-05-14T01:50:16.729Z,95.9
2023-05-14T01:51:17.277Z,95.8
2023-05-14T01:52:16.843Z,95.7
2023-05-14T01:53:17.388Z,95.9
2023-05-14T01:54:16.926Z,96.0
2023-05-14T01:55:17.539Z,95.9
2023-05-14T01:56:17.086Z,95.9
2023-05-14T01:57:16.708Z,95.9
2023-05-14T01:58:17.334Z,95.9
2023-05-14T01:59:16.909Z,95.9
2023-05-14T02:00:17.514Z,95.9
2023-05-14T02:01:17.189Z,95.9
2023-05-14T02:02:16.720Z,95.9
2023-05-14T02:03:17.245Z,95.9
2023-05-14T02:04:16.966Z,95.9
2023-05-14T02:05:16.683Z,95.9
2023-05-14T02:06:17.251Z,96.0
2023-05-14T02:07:16.801Z,96.0
2023-05-14T02:08:17.327Z,96.1
2023-05-14T02:09:16.928Z,96.2
2023-05-14T02:10:17.504Z,96.2
2023-05-14T02:11:17.209Z,96.2
2023-05-14T02:12:16.804Z,96.4
2023-05-14T02:13:17.356Z,96.4
2023-05-14T02:14:16.884Z,96.5
2023-05-14T02:15:17.440Z,96.6
2023-05-14T02:16:17.071Z,96.5
2023-05-14T02:17:16.626Z,96.4
2023-05-14T02:18:17.248Z,96.4
2023-05-14T02:19:16.935Z,96.4
2023-05-14T02:20:17.525Z,96.4
2023-05-14T02:21:17.089Z,96.4
2023-05-14T02:22:16.560Z,96.3
2023-05-14T02:23:17.103Z,96.3
2023-05-14T02:24:16.680Z,96.3
2023-05-14T02:25:17.245Z,96.4
2023-05-14T02:26:16.811Z,96.4
2023-05-14T02:27:17.363Z,96.4
2023-05-14T02:28:16.980Z,96.4
2023-05-14T02:29:16.564Z,96.3
2023-05-14T02:30:17.112Z,96.2
2023-05-14T02:31:16.727Z,96.2
2023-05-14T02:32:16.851Z,96.3
2023-05-14T02:33:17.594Z,96.2
2023-05-14T02:34:17.192Z,96.3
2023-05-14T02:35:16.776Z,96.3
2023-05-14T02:36:17.377Z,96.2
2023-05-14T02:37:16.971Z,96.2
2023-05-14T02:38:16.536Z,96.1
2023-05-14T02:39:17.139Z,96.1
2023-05-14T02:40:16.717Z,96.1
2023-05-14T02:41:17.266Z,96.2
2023-05-14T02:42:17.044Z,96.2
2023-05-14T02:43:16.577Z,96.2
2023-05-14T02:44:17.121Z,96.3
2023-05-14T02:45:16.707Z,96.3
2023-05-14T02:46:17.399Z,96.3
2023-05-14T02:47:16.961Z,96.3
2023-05-14T02:48:17.509Z,96.3
2023-05-14T02:49:17.075Z,96.3
2023-05-14T02:50:16.664Z,96.3
2023-05-14T02:51:17.210Z,96.2
2023-05-14T02:52:17.120Z,96.2
2023-05-14T02:53:16.692Z,96.3
2023-05-14T02:54:17.261Z,96.2
2023-05-14T02:55:16.861Z,96.2
2023-05-14T02:56:17.423Z,96.3
2023-05-14T02:57:16.975Z,96.0
2023-05-14T02:58:16.482Z,95.9
2023-05-14T02:59:17.508Z,95.8
2023-05-14T03:00:17.048Z,95.9
2023-05-14T03:01:17.447Z,95.8
2023-05-14T03:02:17.860Z,95.8
2023-05-14T03:03:17.467Z,95.8
2023-05-14T03:04:17.434Z,95.8
2023-05-14T03:05:17.022Z,95.8
2023-05-14T03:06:16.601Z,95.8
2023-05-14T03:07:17.156Z,95.9
2023-05-14T03:08:16.727Z,95.8
2023-05-14T03:09:17.275Z,95.8
2023-05-14T03:10:16.826Z,95.9
2023-05-14T03:11:17.389Z,95.9
2023-05-14T03:12:16.899Z,96.0
2023-05-14T03:13:17.456Z,96.0
2023-05-14T03:14:17.022Z,96.0
2023-05-14T03:15:16.586Z,96.1
2023-05-14T03:16:17.258Z,96.1
2023-05-14T03:17:16.826Z,96.2
2023-05-14T03:18:17.351Z,96.1
2023-05-14T03:19:17.060Z,95.8
2023-05-14T03:20:16.676Z,95.8
2023-05-14T03:21:17.256Z,95.9
2023-05-14T03:22:16.924Z,95.9
2023-05-14T03:23:17.472Z,95.9
2023-05-14T03:24:17.044Z,95.9
2023-05-14T03:25:16.599Z,95.9
2023-05-14T03:26:17.146Z,95.9
2023-05-14T03:27:16.689Z,95.9
2023-05-14T03:28:17.230Z,96.0
2023-05-14T03:29:16.810Z,96.0
2023-05-14T03:30:17.388Z,95.9
2023-05-14T03:31:17.071Z,96.0
2023-05-14T03:32:16.730Z,96.0
2023-05-14T03:33:17.284Z,96.0
2023-05-14T03:34:16.840Z,96.1
2023-05-14T03:35:17.391Z,96.1
2023-05-14T03:36:16.928Z,96.2
2023-05-14T03:37:17.557Z,96.1
2023-05-14T03:38:17.100Z,96.1
2023-05-14T03:39:16.638Z,96.1
2023-05-14T03:40:17.213Z,96.1
2023-05-14T03:41:16.753Z,96.1
2023-05-14T03:42:16.605Z,96.1
2023-05-14T03:43:17.147Z,96.1
2023-05-14T03:44:16.698Z,96.1
2023-05-14T03:45:17.257Z,96.0
2023-05-14T03:46:16.825Z,96.0
2023-05-14T03:47:17.380Z,96.0
2023-05-14T03:48:17.184Z,96.0
2023-05-14T03:49:16.791Z,95.9
2023-05-14T03:50:17.415Z,95.9
2023-05-14T03:51:17.033Z,95.8
2023-05-14T03:52:16.708Z,95.9
2023-05-14T03:53:17.272Z,95.8
2023-05-14T03:54:16.852Z,95.8
2023-05-14T03:55:17.396Z,95.7
2023-05-14T03:56:17.005Z,95.8
2023-05-14T03:57:16.560Z,95.8
2023-05-14T03:58:17.101Z,95.7
2023-05-14T03:59:16.663Z,95.7
2023-05-14T04:00:17.227Z,95.7
2023-05-14T04:01:16.801Z,95.4
2023-05-14T04:02:16.694Z,95.4
2023-05-14T04:03:17.453Z,95.5
2023-05-14T04:04:17.120Z,95.4
2023-05-14T04:05:16.696Z,95.5
2023-05-14T04:06:17.261Z,95.5
2023-05-14T04:07:16.839Z,95.6
2023-05-14T04:08:17.421Z,95.6
2023-05-14T04:09:16.973Z,95.4
2023-05-14T04:10:16.555Z,95.4
2023-05-14T04:11:17.085Z,95.4
2023-05-14T04:12:16.896Z,95.4
2023-05-14T04:13:17.441Z,95.3
2023-05-14T04:14:16.953Z,95.4
2023-05-14T04:15:17.571Z,95.3
2023-05-14T04:16:17.186Z,95.2
2023-05-14T04:17:16.774Z,95.2
2023-05-14T04:18:17.367Z,95.2
2023-05-14T04:19:17.050Z,95.2
2023-05-14T04:20:16.690Z,95.1
2023-05-14T04:21:17.253Z,95.1
2023-05-14T04:22:17.157Z,95.1
2023-05-14T04:23:16.715Z,95.2
2023-05-14T04:24:17.272Z,95.1
2023-05-14T04:25:16.909Z,95.0
2023-05-14T04:26:17.545Z,95.1
2023-05-14T04:27:17.160Z,95.1
2023-05-14T04:28:16.684Z,95.1
2023-05-14T04:29:17.220Z,95.0
2023-05-14T04:30:16.787Z,94.9
2023-05-14T04:31:17.393Z,95.0
2023-05-14T04:32:17.050Z,94.8
2023-05-14T04:33:16.624Z,94.7
2023-05-14T04:34:17.211Z,94.8
2023-05-14T04:35:16.770Z,94.8
2023-05-14T04:36:17.344Z,94.8
2023-05-14T04:37:16.936Z,94.8
2023-05-14T04:38:17.519Z,94.8
2023-05-14T04:39:17.087Z,94.7
2023-05-14T04:40:16.629Z,94.6
2023-05-14T04:41:17.172Z,93.9
2023-05-14T04:42:17.054Z,93.6
2023-05-14T04:43:16.625Z,92.7
2023-05-14T04:44:17.191Z,93.4
2023-05-14T04:45:16.755Z,93.3
2023-05-14T04:46:17.425Z,92.8
2023-05-14T04:47:17.070Z,92.6
2023-05-14T04:48:16.654Z,92.4
2023-05-14T04:49:17.199Z,91.9
2023-05-14T04:50:16.809Z,91.8
2023-05-14T04:51:17.371Z,92.0
2023-05-14T04:52:17.110Z,90.9
2023-05-14T04:53:16.661Z,90.4
2023-05-14T04:54:17.300Z,91.0
2023-05-14T04:55:16.891Z,90.4
2023-05-14T04:56:17.484Z,91.1
2023-05-14T04:57:17.057Z,90.2
2023-05-14T04:58:16.624Z,89.7
2023-05-14T04:59:17.188Z,90.1
2023-05-14T05:00:16.753Z,90.2
2023-05-14T05:01:17.401Z,90.0
2023-05-14T05:02:16.776Z,89.8
2023-05-14T05:03:17.485Z,90.2
2023-05-14T05:04:17.322Z,90.5
2023-05-14T05:05:16.947Z,90.0
2023-05-14T05:06:17.505Z,89.4
2023-05-14T05:07:17.040Z,90.0
2023-05-14T05:08:16.649Z,90.1
2023-05-14T05:09:17.237Z,89.9
2023-05-14T05:10:16.808Z,90.1
2023-05-14T05:11:17.367Z,89.9
2023-05-14T05:12:17.120Z,89.4
2023-05-14T05:13:16.645Z,89.9
2023-05-14T05:14:17.208Z,89.7
2023-05-14T05:15:16.790Z,89.1
2023-05-14T05:16:17.485Z,89.3
2023-05-14T05:17:17.168Z,89.0
2023-05-14T05:18:16.752Z,88.9
2023-05-14T05:19:17.502Z,89.6
2023-05-14T05:20:17.122Z,89.1
2023-05-14T05:21:16.700Z,88.7
2023-05-14T05:22:16.579Z,88.3
2023-05-14T05:23:17.135Z,88.5
2023-05-14T05:24:16.678Z,88.4
2023-05-14T05:25:17.250Z,88.6
2023-05-14T05:26:16.880Z,88.6
2023-05-14T05:27:17.477Z,88.4
2023-05-14T05:28:17.012Z,87.7
2023-05-14T05:29:16.575Z,87.0
2023-05-14T05:30:17.158Z,87.6
2023-05-14T05:31:19.999Z,87.5
2023-05-14T05:32:17.354Z,87.8
2023-05-14T05:33:16.909Z,87.9
2023-05-14T05:34:17.456Z,88.1
2023-05-14T05:35:17.011Z,88.3
2023-05-14T05:36:16.567Z,87.9
2023-05-14T05:37:17.112Z,87.5
2023-05-14T05:38:16.664Z,87.7
2023-05-14T05:39:17.228Z,87.2
2023-05-14T05:40:16.780Z,87.8
2023-05-14T05:41:17.327Z,88.0
2023-05-14T05:42:16.900Z,88.0
2023-05-14T05:43:17.480Z,87.2
2023-05-14T05:44:17.057Z,87.6
2023-05-14T05:45:16.613Z,87.0
2023-05-14T05:46:17.254Z,86.6
2023-05-14T05:47:16.916Z,87.0
2023-05-14T05:48:16.506Z,86.5
2023-05-14T05:49:17.076Z,85.7
2023-05-14T05:50:19.497Z,86.0
2023-05-14T05:51:16.562Z,84.6
2023-05-14T05:52:16.762Z,85.7
2023-05-14T05:53:17.325Z,85.6
2023-05-14T05:54:16.892Z,84.9
2023-05-14T05:55:17.483Z,82.4
2023-05-14T05:56:17.022Z,82.8
2023-05-14T05:57:16.581Z,81.4
2023-05-14T05:58:17.204Z,82.2
2023-05-14T05:59:16.805Z,80.9
2023-05-14T06:00:17.379Z,80.5
2023-05-14T06:01:16.928Z,81.3
2023-05-14T06:02:17.241Z,81.4
2023-05-14T06:03:16.901Z,81.3
2023-05-14T06:04:17.489Z,81.3
2023-05-14T06:05:17.214Z,81.1
2023-05-14T06:06:16.830Z,80.3
2023-05-14T06:07:17.359Z,79.6
2023-05-14T06:08:16.947Z,78.8
2023-05-14T06:09:17.498Z,80.0
2023-05-14T06:10:17.085Z,80.1
2023-05-14T06:11:16.663Z,80.4
2023-05-14T06:12:16.848Z,78.2
2023-05-14T06:13:17.463Z,79.0
2023-05-14T06:14:17.007Z,78.4
2023-05-14T06:15:16.560Z,78.2
2023-05-14T06:16:17.217Z,79.0
2023-05-14T06:17:16.808Z,80.3
2023-05-14T06:18:17.399Z,80.7
2023-05-14T06:19:17.158Z,80.4
2023-05-14T06:20:16.873Z,79.9
2023-05-14T06:21:17.439Z,79.0
2023-05-14T06:22:16.945Z,79.1
2023-05-14T06:23:17.497Z,78.5
2023-05-14T06:24:17.108Z,79.1
2023-05-14T06:25:16.654Z,78.8
2023-05-14T06:26:17.210Z,78.9
2023-05-14T06:27:16.782Z,78.9
2023-05-14T06:28:17.307Z,79.0
2023-05-14T06:29:16.895Z,78.6
2023-05-14T06:30:17.447Z,76.3
2023-05-14T06:31:17.026Z,76.7
2023-05-14T06:32:16.811Z,76.9
2023-05-14T06:33:20.595Z,78.1
2023-05-14T06:34:17.245Z,77.8
2023-05-14T06:35:16.807Z,77.9
2023-05-14T06:36:17.349Z,77.9
2023-05-14T06:37:16.892Z,77.7
2023-05-14T06:38:17.434Z,77.9
2023-05-14T06:39:17.003Z,77.7
2023-05-14T06:40:16.563Z,77.4
2023-05-14T06:41:17.142Z,77.1
2023-05-14T06:42:16.965Z,77.4
2023-05-14T06:43:17.536Z,77.9
2023-05-14T06:44:17.072Z,77.3
2023-05-14T06:45:16.655Z,77.5
2023-05-14T06:46:17.219Z,77.6
2023-05-14T06:47:16.797Z,77.6
2023-05-14T06:48:17.533Z,77.8
2023-05-14T06:49:17.381Z,78.1
2023-05-14T06:50:17.016Z,78.9
2023-05-14T06:51:16.613Z,78.1
2023-05-14T06:52:17.352Z,78.0
2023-05-14T06:53:16.884Z,77.7
2023-05-14T06:54:17.421Z,77.5
2023-05-14T06:55:16.964Z,77.4
2023-05-14T06:56:17.558Z,76.7
2023-05-14T06:57:17.105Z,77.1
2023-05-14T06:58:16.674Z,77.4
2023-05-14T06:59:17.231Z,77.3
2023-05-14T07:00:16.969Z,77.1
2023-05-14T07:01:16.720Z,76.6
2023-05-14T07:02:17.341Z,75.4
2023-05-14T07:03:16.889Z,75.3
2023-05-14T07:04:17.517Z,76.3
2023-05-14T07:05:17.114Z,76.1
2023-05-14T07:06:16.644Z,75.9
2023-05-14T07:07:17.198Z,75.9
2023-05-14T07:08:16.754Z,76.3
2023-05-14T07:09:17.304Z,76.7
2023-05-14T07:10:16.853Z,75.8
2023-05-14T07:11:17.403Z,76.0
2023-05-14T07:12:17.193Z,75.5
2023-05-14T07:13:16.765Z,75.4
2023-05-14T07:14:17.324Z,75.5
2023-05-14T07:15:16.905Z,74.5
2023-05-14T07:16:17.472Z,74.3
2023-05-14T07:17:17.229Z,73.0
2023-05-14T07:18:17.055Z,73.3
2023-05-14T07:19:16.760Z,74.6
2023-05-14T07:20:17.367Z,72.8
2023-05-14T07:21:16.933Z,72.7
2023-05-14T07:22:17.282Z,71.2
2023-05-14T07:23:19.949Z,70.6
2023-05-14T07:24:16.626Z,69.2
2023-05-14T07:25:17.233Z,70.4
2023-05-14T07:26:16.791Z,70.2
2023-05-14T07:27:17.400Z,70.6
2023-05-14T07:28:16.986Z,70.4
2023-05-14T07:29:16.563Z,71.5
2023-05-14T07:30:17.606Z,72.5
2023-05-14T07:31:17.474Z,71.9
2023-05-14T07:32:17.438Z,71.6
2023-05-14T07:33:16.986Z,70.7
2023-05-14T07:34:16.564Z,71.1
2023-05-14T07:35:17.178Z,70.8
2023-05-14T07:36:16.750Z,72.0
2023-05-14T07:37:17.300Z,72.6
2023-05-14T07:38:16.830Z,72.0
2023-05-14T07:39:17.382Z,71.7
2023-05-14T07:40:16.960Z,71.7
2023-05-14T07:41:16.537Z,71.7
2023-05-14T07:42:35.659Z,73.9
2023-05-14T07:43:17.438Z,74.0
2023-05-14T07:44:16.984Z,75.2
2023-05-14T07:45:16.590Z,75.5
2023-05-14T07:46:17.161Z,74.8
2023-05-14T07:47:16.801Z,75.0
2023-05-14T07:48:17.594Z,75.3
2023-05-14T07:49:17.147Z,76.5
2023-05-14T07:50:16.731Z,75.8
2023-05-14T07:51:17.283Z,75.0
2023-05-14T07:52:17.094Z,74.6
2023-05-14T07:53:16.735Z,74.6
2023-05-14T07:54:17.302Z,74.8
2023-05-14T07:55:16.865Z,75.5
2023-05-14T07:56:17.406Z,75.9
2023-05-14T07:57:17.035Z,76.6
2023-05-14T07:58:16.592Z,75.6
2023-05-14T07:59:17.122Z,75.8
2023-05-14T08:00:16.714Z,76.8
2023-05-14T08:01:17.277Z,76.5
2023-05-14T08:02:17.607Z,77.1
2023-05-14T08:03:17.502Z,77.3
2023-05-14T08:04:17.193Z,76.9
2023-05-14T08:05:16.771Z,77.0
2023-05-14T08:06:17.363Z,77.3
2023-05-14T08:07:16.933Z,77.6
2023-05-14T08:08:17.510Z,77.6
2023-05-14T08:09:17.062Z,77.5
2023-05-14T08:10:16.656Z,77.5
2023-05-14T08:11:17.311Z,78.2
2023-05-14T08:12:16.949Z,78.1
2023-05-14T08:13:17.474Z,78.2
2023-05-14T08:14:17.031Z,78.0
2023-05-14T08:15:16.574Z,77.9
2023-05-14T08:16:17.190Z,78.1
2023-05-14T08:17:16.880Z,78.3
2023-05-14T08:18:17.509Z,78.4
2023-05-14T08:19:17.259Z,78.5
2023-05-14T08:20:16.892Z,78.7
2023-05-14T08:21:17.456Z,78.6
2023-05-14T08:22:17.389Z,78.5
2023-05-14T08:23:16.985Z,78.1
2023-05-14T08:24:16.571Z,77.9
2023-05-14T08:25:17.187Z,77.7
2023-05-14T08:26:16.735Z,77.6
2023-05-14T08:27:17.271Z,78.2
2023-05-14T08:28:16.806Z,78.0
2023-05-14T08:29:17.383Z,78.1
2023-05-14T08:30:16.931Z,78.7
2023-05-14T08:31:17.574Z,78.1
2023-05-14T08:32:24.344Z,78.5
2023-05-14T08:33:16.962Z,78.5
2023-05-14T08:34:17.558Z,78.3
2023-05-14T08:35:17.117Z,78.1
2023-05-14T08:36:16.658Z,78.2
2023-05-14T08:37:17.199Z,78.5
2023-05-14T08:38:16.736Z,78.3
2023-05-14T08:39:17.268Z,78.2
2023-05-14T08:40:16.822Z,78.5
2023-05-14T08:41:17.360Z,78.8
2023-05-14T08:42:17.364Z,79.2
2023-05-14T08:43:16.892Z,78.9
2023-05-14T08:44:17.468Z,78.8
2023-05-14T08:45:17.087Z,78.6
2023-05-14T08:46:16.669Z,78.9
2023-05-14T08:47:17.212Z,78.7
2023-05-14T08:48:16.933Z,78.4
2023-05-14T08:49:16.573Z,78.4
2023-05-14T08:50:17.164Z,78.8
2023-05-14T08:51:16.761Z,79.0
2023-05-14T08:52:16.556Z,79.1
2023-05-14T08:53:17.099Z,78.9
2023-05-14T08:54:16.652Z,78.7
2023-05-14T08:55:17.222Z,78.6
2023-05-14T08:56:16.796Z,78.9
2023-05-14T08:57:17.343Z,78.7
2023-05-14T08:58:16.917Z,78.4
2023-05-14T08:59:17.489Z,78.3
2023-05-14T09:00:17.075Z,78.0
2023-05-14T09:01:16.757Z,78.2
2023-05-14T09:02:16.636Z,78.6
2023-05-14T09:03:17.290Z,78.3
2023-05-14T09:04:17.109Z,78.6
2023-05-14T09:05:16.689Z,78.4
2023-05-14T09:06:17.259Z,78.5
2023-05-14T09:07:16.796Z,78.1
2023-05-14T09:08:17.355Z,78.0
2023-05-14T09:09:16.895Z,78.4
2023-05-14T09:10:17.474Z,78.1
2023-05-14T09:11:17.025Z,77.7
2023-05-14T09:12:16.562Z,77.7
2023-05-14T09:13:17.097Z,77.8
2023-05-14T09:14:16.692Z,78.1
2023-05-14T09:15:17.314Z,77.8
2023-05-14T09:16:16.924Z,77.3
2023-05-14T09:17:17.523Z,77.0
2023-05-14T09:18:17.156Z,77.4
2023-05-14T09:19:16.953Z,77.5
2023-05-14T09:20:16.602Z,77.9
2023-05-14T09:21:17.167Z,77.8
2023-05-14T09:22:17.307Z,78.1
2023-05-14T09:23:16.845Z,78.1
2023-05-14T09:24:17.393Z,78.5
2023-05-14T09:25:16.958Z,78.8
2023-05-14T09:26:16.560Z,78.2
2023-05-14T09:27:17.134Z,77.6
2023-05-14T09:28:16.694Z,77.4
2023-05-14T09:29:17.275Z,77.7
2023-05-14T09:30:16.850Z,77.7
2023-05-14T09:31:17.411Z,77.3
2023-05-14T09:32:16.544Z,77.7
2023-05-14T09:33:17.124Z,77.8
2023-05-14T09:34:16.752Z,78.0
2023-05-14T09:35:18.027Z,77.5
2023-05-14T09:36:16.633Z,77.5
2023-05-14T09:37:17.195Z,77.5
2023-05-14T09:38:16.762Z,76.8
2023-05-14T09:39:17.394Z,76.9
2023-05-14T09:40:17.029Z,76.4
2023-05-14T09:41:16.634Z,76.4
2023-05-14T09:42:17.017Z,75.6
2023-05-14T09:43:16.574Z,74.8
2023-05-14T09:44:17.159Z,75.0
2023-05-14T09:45:16.743Z,74.8
2023-05-14T09:46:17.288Z,74.2
2023-05-14T09:47:17.021Z,74.2
2023-05-14T09:48:16.634Z,73.7
2023-05-14T09:49:17.183Z,73.9
2023-05-14T09:50:16.725Z,73.7
2023-05-14T09:51:17.294Z,73.6
2023-05-14T09:52:17.298Z,73.9
2023-05-14T09:53:16.840Z,74.0
2023-05-14T09:54:17.385Z,73.9
2023-05-14T09:55:16.933Z,73.5
2023-05-14T09:56:17.483Z,73.1
2023-05-14T09:57:17.050Z,71.9
2023-05-14T09:58:16.631Z,72.0
2023-05-14T09:59:17.181Z,71.8
2023-05-14T10:00:16.816Z,71.8
2023-05-14T10:01:17.494Z,71.1
2023-05-14T10:02:17.147Z,72.5
2023-05-14T10:03:20.111Z,72.6
2023-05-14T10:04:16.827Z,71.1
2023-05-14T10:05:17.398Z,70.0
2023-05-14T10:06:16.961Z,70.4
2023-05-14T10:07:17.532Z,69.5
2023-05-14T10:08:17.132Z,68.7
2023-05-14T10:09:16.702Z,69.2
2023-05-14T10:10:17.473Z,67.6
2023-05-14T10:11:17.035Z,68.4
2023-05-14T10:12:16.746Z,68.4
2023-05-14T10:13:17.352Z,66.9
2023-05-14T10:14:16.877Z,68.3
2023-05-14T10:15:17.452Z,68.0
2023-05-14T10:16:17.004Z,69.0
2023-05-14T10:17:16.655Z,69.2
2023-05-14T10:18:17.364Z,70.0
2023-05-14T10:19:17.146Z,69.0
2023-05-14T10:20:16.800Z,69.4
2023-05-14T10:21:17.389Z,68.7
2023-05-14T10:22:17.092Z,69.7
2023-05-14T10:23:16.672Z,69.5
2023-05-14T10:24:17.308Z,70.1
2023-05-14T10:25:16.906Z,69.0
2023-05-14T10:26:17.453Z,69.3
2023-05-14T10:27:17.028Z,68.5
2023-05-14T10:28:16.566Z,69.2
2023-05-14T10:29:17.136Z,69.3
2023-05-14T10:30:16.716Z,69.9
2023-05-14T10:31:17.401Z,69.9
2023-05-14T10:32:17.112Z,70.3
2023-05-14T10:33:16.849Z,69.1
2023-05-14T10:34:17.531Z,68.7
2023-05-14T10:35:17.121Z,68.1
2023-05-14T10:36:16.717Z,67.4
2023-05-14T10:37:17.286Z,67.0
2023-05-14T10:38:16.860Z,66.7
2023-05-14T10:39:17.410Z,67.4
2023-05-14T10:40:16.928Z,69.2
2023-05-14T10:41:17.454Z,69.1
2023-05-14T10:42:17.489Z,69.4
2023-05-14T10:43:17.062Z,69.9
2023-05-14T10:44:16.640Z,70.6
2023-05-14T10:45:17.207Z,70.7
2023-05-14T10:46:16.841Z,70.4
2023-05-14T10:47:17.479Z,70.5
2023-05-14T10:48:17.226Z,71.3
2023-05-14T10:49:32.460Z,71.2
2023-05-14T10:50:16.973Z,71.0
2023-05-14T10:51:16.625Z,70.2
2023-05-14T10:52:17.401Z,70.0
2023-05-14T10:53:16.988Z,69.6
2023-05-14T10:54:16.547Z,69.5
2023-05-14T10:55:17.167Z,70.3
2023-05-14T10:56:16.722Z,70.1
2023-05-14T10:57:17.275Z,69.7
2023-05-14T10:58:16.816Z,69.6
2023-05-14T10:59:17.378Z,69.6
2023-05-14T11:00:16.947Z,69.3
2023-05-14T11:01:17.578Z,68.8
2023-05-14T11:02:17.566Z,68.9
2023-05-14T11:03:17.209Z,68.2
2023-05-14T11:04:16.989Z,67.8
2023-05-14T11:05:16.600Z,68.2
2023-05-14T11:06:17.202Z,68.0
2023-05-14T11:07:16.764Z,67.6
2023-05-14T11:08:17.343Z,67.6
2023-05-14T11:09:16.903Z,67.6
2023-05-14T11:10:17.501Z,67.6
2023-05-14T11:11:17.067Z,67.1
2023-05-14T11:12:16.901Z,66.1
2023-05-14T11:13:17.461Z,66.2
2023-05-14T11:14:17.004Z,65.9
2023-05-14T11:15:16.588Z,66.1
2023-05-14T11:16:23.659Z,65.0
2023-05-14T11:17:16.770Z,64.5
2023-05-14T11:18:17.340Z,65.0
2023-05-14T11:19:17.101Z,65.4
2023-05-14T11:20:16.741Z,65.5
2023-05-14T11:21:17.401Z,64.4
2023-05-14T11:22:17.034Z,63.8
2023-05-14T11:23:16.580Z,63.9
2023-05-14T11:24:17.175Z,64.9
2023-05-14T11:25:16.736Z,65.4
2023-05-14T11:26:21.483Z,65.2
2023-05-14T11:27:17.197Z,64.8
2023-05-14T11:28:16.762Z,64.7
2023-05-14T11:29:17.321Z,64.1
2023-05-14T11:30:17.144Z,64.3
2023-05-14T11:31:16.861Z,63.9
2023-05-14T11:32:17.473Z,64.1
2023-05-14T11:33:17.112Z,64.0
2023-05-14T11:34:16.794Z,64.4
2023-05-14T11:35:17.358Z,63.9
2023-05-14T11:36:16.896Z,64.9
2023-05-14T11:37:17.464Z,64.6
2023-05-14T11:38:17.032Z,64.7
2023-05-14T11:39:16.627Z,64.7
2023-05-14T11:40:17.432Z,64.4
2023-05-14T11:41:17.056Z,64.4
2023-05-14T11:42:16.994Z,64.7
2023-05-14T11:43:16.541Z,64.2
2023-05-14T11:44:17.089Z,64.4
2023-05-14T11:45:16.648Z,64.5
2023-05-14T11:46:17.287Z,64.9
2023-05-14T11:47:16.898Z,65.8
2023-05-14T11:48:17.433Z,65.7
2023-05-14T11:49:16.960Z,64.1
2023-05-14T11:50:17.518Z,63.8
2023-05-14T11:51:17.143Z,63.2
2023-05-14T11:52:16.958Z,63.2
2023-05-14T11:53:17.523Z,64.0
2023-05-14T11:54:17.084Z,64.0
2023-05-14T11:55:16.629Z,64.5
2023-05-14T11:56:17.197Z,65.2
2023-05-14T11:57:16.765Z,65.3
2023-05-14T11:58:17.317Z,64.7
2023-05-14T11:59:16.848Z,64.7
2023-05-14T12:00:17.423Z,65.0
2023-05-14T12:01:16.999Z,64.8
2023-05-14T12:02:16.869Z,64.0
2023-05-14T12:03:17.769Z,63.7
2023-05-14T12:04:17.561Z,63.1
2023-05-14T12:05:17.159Z,63.8
2023-05-14T12:06:16.708Z,64.2
2023-05-14T12:07:17.251Z,64.4
2023-05-14T12:08:16.818Z,64.3
2023-05-14T12:09:17.401Z,64.1
2023-05-14T12:10:16.947Z,64.0
2023-05-14T12:11:17.539Z,63.4
2023-05-14T12:12:17.127Z,63.7
2023-05-14T12:13:16.697Z,64.1
2023-05-14T12:14:17.273Z,64.2
2023-05-14T12:15:16.848Z,64.2
2023-05-14T12:16:17.625Z,63.9
2023-05-14T12:17:17.290Z,64.0
2023-05-14T12:18:25.270Z,64.6
2023-05-14T12:19:17.003Z,63.9
2023-05-14T12:20:16.617Z,63.3
2023-05-14T12:21:17.196Z,64.0
2023-05-14T12:22:16.981Z,63.7
2023-05-14T12:23:16.538Z,64.2
2023-05-14T12:24:17.120Z,64.8
2023-05-14T12:25:16.684Z,65.4
2023-05-14T12:26:17.256Z,65.5
2023-05-14T12:27:16.829Z,65.3
2023-05-14T12:28:17.397Z,64.7
2023-05-14T12:29:16.964Z,65.2
2023-05-14T12:30:22.366Z,65.1
2023-05-14T12:31:17.046Z,65.8
2023-05-14T12:32:16.995Z,66.8
2023-05-14T12:33:16.542Z,66.9
2023-05-14T12:34:17.114Z,66.4
2023-05-14T12:35:16.681Z,67.3
2023-05-14T12:36:22.565Z,66.3
2023-05-14T12:37:17.130Z,66.3
2023-05-14T12:38:16.687Z,66.3
2023-05-14T12:39:17.254Z,66.5
2023-05-14T12:40:16.815Z,66.4
2023-05-14T12:41:17.352Z,65.8
2023-05-14T12:42:17.133Z,66.2
2023-05-14T12:43:16.715Z,65.7
2023-05-14T12:44:17.339Z,65.5
2023-05-14T12:45:16.877Z,65.1
2023-05-14T12:46:17.570Z,66.1
2023-05-14T12:47:17.238Z,66.4
2023-05-14T12:48:16.868Z,65.7
2023-05-14T12:49:17.420Z,65.8
2023-05-14T12:50:17.014Z,65.2
2023-05-14T12:51:16.555Z,64.4
2023-05-14T12:52:37.300Z,64.5
2023-05-14T12:53:17.240Z,64.4
2023-05-14T12:54:16.784Z,64.4
2023-05-14T12:55:17.384Z,64.5
2023-05-14T12:56:16.924Z,65.2
2023-05-14T12:57:17.503Z,64.4
2023-05-14T12:58:17.030Z,64.9
2023-05-14T12:59:16.564Z,64.3
2023-05-14T13:00:17.208Z,65.2
2023-05-14T13:01:16.865Z,64.9
2023-05-14T13:02:17.680Z,64.3
2023-05-14T13:03:17.393Z,63.7
2023-05-14T13:04:17.253Z,63.4
2023-05-14T13:05:16.917Z,62.5
2023-05-14T13:06:17.508Z,63.6
2023-05-14T13:07:17.097Z,64.5
2023-05-14T13:08:16.644Z,63.7
2023-05-14T13:09:17.229Z,64.0
2023-05-14T13:10:16.865Z,64.6
2023-05-14T13:11:17.415Z,63.5
2023-05-14T13:12:17.311Z,63.9
2023-05-14T13:13:16.870Z,63.7
2023-05-14T13:14:20.210Z,64.3
2023-05-14T13:15:16.856Z,64.3
2023-05-14T13:16:17.536Z,63.3
2023-05-14T13:17:17.078Z,63.3
2023-05-14T13:18:16.667Z,63.7